Time;durP1;ratioP1;P1;durP2;ratioP2;P2;SDS_P1;SDS_P2;PMS_P1;PMS_P2;Temp;Humidity;BMP_temperature;BMP_pressure;BME280_temperature;BME280_humidity;BME280_pressure;Samples;Min_cycle;Max_cycle;Signal;HPM_P1;HPM_P2
2023/05/10 00:02:18;;;;;;;58.65;30.00;;;;;;;;;;4995132;28;90057;-65
2023/05/10 00:04:44;;;;;;;52.20;30.67;;;;;;;;;;4995678;28;90163;-65
2023/05/10 00:07:11;;;;;;;57.20;32.65;;;;;;;;;;4995681;28;90034;-65
2023/05/10 00:09:37;;;;;;;57.00;30.70;;;;;;;;;;5007248;28;89003;-65
2023/05/10 00:12:04;;;;;;;57.67;32.80;;;;;;;;;;5018410;28;89300;-65
2023/05/10 00:14:30;;;;;;;59.58;33.17;;;;;;;;;;5009309;28;89023;-65
2023/05/10 00:16:56;;;;;;;53.88;30.90;;;;;;;;;;5006091;28;90498;-65
2023/05/10 00:19:23;;;;;;;62.05;33.85;;;;;;;;;;5022300;28;89858;-65
2023/05/10 00:21:49;;;;;;;59.30;33.35;;;;;;;;;;4998380;28;89982;-64
2023/05/10 00:24:15;;;;;;;64.50;34.13;;;;;;;;;;5002265;28;89810;-64
2023/05/10 00:26:42;;;;;;;67.85;34.13;;;;;;;;;;5019326;27;89039;-65
2023/05/10 00:29:08;;;;;;;65.30;34.33;;;;;;;;;;5018305;28;91003;-65
2023/05/10 00:31:34;;;;;;;68.43;36.28;;;;;;;;;;5011821;28;89732;-65
2023/05/10 00:34:01;;;;;;;65.95;33.95;;;;;;;;;;5007278;28;89053;-64
2023/05/10 00:36:27;;;;;;;66.97;34.20;;;;;;;;;;5006034;28;89353;-64
2023/05/10 00:38:54;;;;;;;66.78;34.85;;;;;;;;;;5013116;28;89134;-65
2023/05/10 00:41:21;;;;;;;79.60;36.63;;;;;;;;;;5015493;28;90597;-65
2023/05/10 00:43:48;;;;;;;67.63;36.20;;;;;;;;;;5006445;28;89795;-65
2023/05/10 00:46:15;;;;;;;73.90;37.38;;;;;;;;;;5015906;28;89187;-65
2023/05/10 00:48:42;;;;;;;74.07;37.28;;;;;;;;;;4998196;28;90116;-65
2023/05/10 00:51:08;;;;;;;73.63;36.40;;;;;;;;;;4998779;28;89961;-65
2023/05/10 00:53:35;;;;;;;70.22;36.78;;;;;;;;;;4997971;28;89005;-65
2023/05/10 00:56:03;;;;;;;73.00;35.70;;;;;;;;;;5001569;28;91178;-64
2023/05/10 00:58:30;;;;;;;80.20;37.90;;;;;;;;;;5013628;28;90104;-64
2023/05/10 01:00:58;;;;;;;79.05;37.40;;;;;;;;;;5010249;28;90038;-65
2023/05/10 01:03:25;;;;;;;72.20;35.60;;;;;;;;;;5007678;28;89585;-65
2023/05/10 01:05:51;;;;;;;80.13;36.80;;;;;;;;;;5017780;28;89016;-64
2023/05/10 01:08:18;;;;;;;69.47;34.92;;;;;;;;;;5015935;28;89939;-65
2023/05/10 01:10:45;;;;;;;76.38;35.85;;;;;;;;;;5007285;28;89500;-65
2023/05/10 01:13:12;;;;;;;68.63;34.80;;;;;;;;;;5013038;28;89191;-65
2023/05/10 01:15:38;;;;;;;76.68;36.10;;;;;;;;;;5000775;28;90214;-64
2023/05/10 01:18:05;;;;;;;65.80;33.70;;;;;;;;;;5015406;27;89380;-65
2023/05/10 01:20:35;;;;;;;70.10;34.83;;;;;;;;;;5007189;28;90024;-65
2023/05/10 01:23:02;;;;;;;;;;;;;;;;;;5003623;28;89715;-65
2023/05/10 01:25:34;;;;;;;65.63;34.40;;;;;;;;;;5020300;28;118965;-65
2023/05/10 01:28:00;;;;;;;70.65;33.75;;;;;;;;;;5000785;28;89102;-65
2023/05/10 01:30:45;;;;;;;69.03;34.17;;;;;;;;;;4997256;28;90422;-65
2023/05/10 01:33:21;;;;;;;68.68;35.05;;;;;;;;;;5011739;28;90817;-65
2023/05/10 01:35:53;;;;;;;67.57;33.47;;;;;;;;;;5006156;28;91089;-65
2023/05/10 01:38:32;;;;;;;76.15;34.90;;;;;;;;;;5007509;28;89640;-65
2023/05/10 01:40:58;;;;;;;69.88;34.58;;;;;;;;;;5013764;28;90061;-65
2023/05/10 01:43:27;;;;;;;92.22;37.42;;;;;;;;;;5005870;28;89630;-65
2023/05/10 01:46:12;;;;;;;74.38;35.58;;;;;;;;;;5027367;27;88983;-65
2023/05/10 01:48:46;;;;;;;73.97;34.20;;;;;;;;;;5010097;28;90006;-65
2023/05/10 01:51:14;;;;;;;76.13;34.58;;;;;;;;;;5017264;28;89589;-65
2023/05/10 01:53:41;;;;;;;80.03;35.80;;;;;;;;;;5016881;28;89052;-65
2023/05/10 01:56:08;;;;;;;77.88;35.65;;;;;;;;;;5016657;28;90156;-65
2023/05/10 01:58:36;;;;;;;81.65;36.17;;;;;;;;;;5004660;28;90632;-65
2023/05/10 02:01:03;;;;;;;75.38;34.92;;;;;;;;;;5011132;28;89097;-65
2023/05/10 02:03:30;;;;;;;81.85;36.28;;;;;;;;;;5015502;28;89847;-65
2023/05/10 02:05:57;;;;;;;73.95;34.90;;;;;;;;;;4996780;28;89240;-65
2023/05/10 02:08:24;;;;;;;78.75;36.92;;;;;;;;;;4996547;28;90189;-64
2023/05/10 02:10:52;;;;;;;79.75;36.83;;;;;;;;;;4996966;28;90716;-66
2023/05/10 02:13:18;;;;;;;80.25;38.38;;;;;;;;;;5019779;28;90264;-65
2023/05/10 02:15:47;;;;;;;73.07;35.88;;;;;;;;;;5016701;27;90238;-65
2023/05/10 02:18:15;;;;;;;79.05;35.63;;;;;;;;;;5003593;28;89630;-65
2023/05/10 02:20:42;;;;;;;79.75;36.28;;;;;;;;;;5014327;28;90290;-65
2023/05/10 02:23:09;;;;;;;82.15;37.55;;;;;;;;;;5012370;28;90241;-66
2023/05/10 02:25:36;;;;;;;83.35;37.08;;;;;;;;;;5004344;28;89584;-65
2023/05/10 02:28:04;;;;;;;83.28;37.22;;;;;;;;;;5006391;28;89721;-65
2023/05/10 02:30:32;;;;;;;82.85;36.55;;;;;;;;;;5002679;28;90969;-65
2023/05/10 02:32:58;;;;;;;81.30;37.35;;;;;;;;;;5005188;28;90385;-65
2023/05/10 02:35:26;;;;;;;73.15;35.72;;;;;;;;;;5003260;27;90123;-64
2023/05/10 02:37:52;;;;;;;84.72;38.17;;;;;;;;;;5006403;28;90701;-65
2023/05/10 02:40:19;;;;;;;86.22;39.40;;;;;;;;;;4999834;28;89849;-65
2023/05/10 02:42:47;;;;;;;82.55;36.72;;;;;;;;;;5012578;28;91127;-65
2023/05/10 02:45:14;;;;;;;83.43;37.63;;;;;;;;;;5022304;28;90582;-65
2023/05/10 02:47:41;;;;;;;84.63;39.70;;;;;;;;;;5005949;28;90372;-64
2023/05/10 02:50:07;;;;;;;82.97;37.15;;;;;;;;;;4995531;28;89893;-65
2023/05/10 02:52:38;;;;;;;84.60;39.20;;;;;;;;;;5014545;28;89550;-65
2023/05/10 02:55:05;;;;;;;96.78;41.95;;;;;;;;;;5003925;28;89961;-65
2023/05/10 02:57:33;;;;;;;104.90;42.83;;;;;;;;;;5005188;28;90431;-65
2023/05/10 03:00:00;;;;;;;107.68;45.35;;;;;;;;;;4996197;28;89002;-65
2023/05/10 03:02:26;;;;;;;102.97;46.58;;;;;;;;;;5011164;28;90449;-65
2023/05/10 03:04:53;;;;;;;110.78;47.22;;;;;;;;;;5002278;28;89631;-64
2023/05/10 03:07:21;;;;;;;115.05;47.28;;;;;;;;;;5014517;28;89173;-65
2023/05/10 03:09:48;;;;;;;112.03;47.45;;;;;;;;;;4999605;28;92357;-65
2023/05/10 03:12:26;;;;;;;117.32;49.03;;;;;;;;;;5024176;27;89474;-65
2023/05/10 03:15:00;;;;;;;122.10;49.13;;;;;;;;;;5005570;28;91290;-65
2023/05/10 03:17:39;;;;;;;125.30;48.55;;;;;;;;;;5007277;28;89543;-65
2023/05/10 03:20:11;;;;;;;119.40;48.53;;;;;;;;;;5015097;28;92522;-64
2023/05/10 03:22:40;;;;;;;125.30;49.97;;;;;;;;;;5014577;28;92372;-64
2023/05/10 03:25:10;;;;;;;125.38;48.97;;;;;;;;;;5008941;28;89715;-65
2023/05/10 03:27:38;;;;;;;128.15;47.47;;;;;;;;;;5002685;28;90178;-65
2023/05/10 03:30:06;;;;;;;124.00;49.00;;;;;;;;;;5001801;28;90596;-65
2023/05/10 03:32:34;;;;;;;120.80;47.88;;;;;;;;;;5005045;28;88995;-65
2023/05/10 03:35:01;;;;;;;111.53;44.38;;;;;;;;;;5003165;28;90007;-65
2023/05/10 03:37:27;;;;;;;112.80;44.92;;;;;;;;;;5010716;28;89569;-65
2023/05/10 03:39:53;;;;;;;98.60;41.83;;;;;;;;;;4996235;28;89337;-65
2023/05/10 03:42:20;;;;;;;95.03;40.97;;;;;;;;;;5010820;27;89995;-65
2023/05/10 03:44:48;;;;;;;95.75;41.13;;;;;;;;;;5015756;27;89666;-65
2023/05/10 03:47:15;;;;;;;108.25;44.25;;;;;;;;;;5000701;28;90157;-65
2023/05/10 03:49:41;;;;;;;110.22;42.17;;;;;;;;;;5009958;28;91205;-65
2023/05/10 03:52:07;;;;;;;104.07;43.15;;;;;;;;;;5007886;28;89580;-65
2023/05/10 03:54:34;;;;;;;97.95;39.80;;;;;;;;;;5012572;28;90631;-65
2023/05/10 03:57:00;;;;;;;94.35;40.33;;;;;;;;;;5014485;28;89543;-65
2023/05/10 03:59:27;;;;;;;107.00;42.33;;;;;;;;;;5015295;28;89518;-65
2023/05/10 04:01:53;;;;;;;110.75;41.40;;;;;;;;;;5003843;28;90000;-65
2023/05/10 04:04:20;;;;;;;98.63;39.42;;;;;;;;;;5012387;28;89598;-65
2023/05/10 04:06:47;;;;;;;91.40;38.78;;;;;;;;;;5008253;28;89024;-65
2023/05/10 04:09:13;;;;;;;101.68;40.33;;;;;;;;;;5017799;28;90087;-65
2023/05/10 04:11:40;;;;;;;93.45;38.08;;;;;;;;;;5017350;28;89647;-65
2023/05/10 04:14:06;;;;;;;97.97;37.40;;;;;;;;;;5024892;28;89220;-65
2023/05/10 04:16:32;;;;;;;96.18;38.67;;;;;;;;;;5009386;28;90622;-65
2023/05/10 04:18:59;;;;;;;100.90;40.08;;;;;;;;;;5012566;28;89097;-65
2023/05/10 04:21:25;;;;;;;94.05;37.50;;;;;;;;;;4998505;28;90037;-65
2023/05/10 04:23:52;;;;;;;96.18;37.55;;;;;;;;;;5007717;28;89062;-65
2023/05/10 04:26:18;;;;;;;100.90;38.20;;;;;;;;;;5000676;28;89725;-65
2023/05/10 04:28:44;;;;;;;103.03;38.97;;;;;;;;;;5015919;28;90074;-65
2023/05/10 04:31:11;;;;;;;99.68;39.13;;;;;;;;;;5016741;28;89570;-64
2023/05/10 04:33:37;;;;;;;101.15;40.38;;;;;;;;;;5006918;28;90400;-65
2023/05/10 04:36:04;;;;;;;102.28;40.45;;;;;;;;;;5007230;28;90082;-64
2023/05/10 04:38:30;;;;;;;102.75;41.08;;;;;;;;;;5001758;28;89017;-65
2023/05/10 04:41:06;;;;;;;97.75;38.95;;;;;;;;;;5026357;28;90098;-65
2023/05/10 04:43:33;;;;;;;98.30;38.65;;;;;;;;;;5030539;27;89783;-65
2023/05/10 04:45:59;;;;;;;111.68;40.25;;;;;;;;;;4999269;28;89227;-65
2023/05/10 04:48:26;;;;;;;105.65;41.88;;;;;;;;;;5005329;28;90192;-65
2023/05/10 04:50:52;;;;;;;117.25;40.20;;;;;;;;;;5012035;28;89818;-65
2023/05/10 04:53:18;;;;;;;114.90;42.25;;;;;;;;;;5011323;28;89185;-65
2023/05/10 04:55:46;;;;;;;117.88;43.97;;;;;;;;;;5015301;28;90476;-65
2023/05/10 04:58:12;;;;;;;110.50;42.00;;;;;;;;;;5016976;28;89065;-65
2023/05/10 05:00:39;;;;;;;110.43;42.15;;;;;;;;;;5018336;28;90117;-65
2023/05/10 05:03:06;;;;;;;110.75;41.40;;;;;;;;;;5003955;27;89761;-65
2023/05/10 05:05:32;;;;;;;106.40;40.95;;;;;;;;;;5007153;28;89077;-65
2023/05/10 05:07:58;;;;;;;105.20;43.00;;;;;;;;;;4998090;28;89686;-65
2023/05/10 05:10:25;;;;;;;107.18;41.60;;;;;;;;;;5017383;28;89649;-64
2023/05/10 05:12:51;;;;;;;98.35;39.72;;;;;;;;;;5017065;27;88987;-65
2023/05/10 05:15:17;;;;;;;101.80;42.35;;;;;;;;;;5018766;28;91255;-65
2023/05/10 05:17:43;;;;;;;109.38;40.10;;;;;;;;;;5022281;28;89400;-65
2023/05/10 05:20:10;;;;;;;113.78;41.53;;;;;;;;;;5020941;27;91169;-65
2023/05/10 05:22:37;;;;;;;111.22;42.78;;;;;;;;;;5005719;27;89655;-65
2023/05/10 05:25:04;;;;;;;117.85;43.17;;;;;;;;;;5002226;28;89361;-65
2023/05/10 05:27:31;;;;;;;125.32;45.65;;;;;;;;;;5007157;28;90065;-64
2023/05/10 05:29:57;;;;;;;124.95;45.35;;;;;;;;;;5008628;28;89712;-65
2023/05/10 05:32:24;;;;;;;118.88;44.72;;;;;;;;;;5013895;28;89009;-65
2023/05/10 05:34:50;;;;;;;119.32;46.55;;;;;;;;;;5004943;28;90606;-65
2023/05/10 05:37:18;;;;;;;117.90;44.20;;;;;;;;;;5025056;28;89810;-65
2023/05/10 05:39:44;;;;;;;112.35;44.08;;;;;;;;;;5008955;28;89843;-64
2023/05/10 05:42:11;;;;;;;121.57;45.17;;;;;;;;;;5001105;28;90535;-68
2023/05/10 05:44:38;;;;;;;120.70;45.25;;;;;;;;;;5017073;28;90299;-65
2023/05/10 05:47:04;;;;;;;120.85;46.90;;;;;;;;;;5008189;28;90153;-64
2023/05/10 05:49:31;;;;;;;122.80;46.90;;;;;;;;;;5010946;28;89588;-65
2023/05/10 05:52:00;;;;;;;131.80;48.92;;;;;;;;;;5017429;28;89169;-65
2023/05/10 05:54:27;;;;;;;138.83;46.47;;;;;;;;;;5017262;28;89245;-65
2023/05/10 05:56:54;;;;;;;111.43;43.75;;;;;;;;;;5002318;28;89853;-65
2023/05/10 05:59:20;;;;;;;124.30;46.40;;;;;;;;;;5003018;28;90075;-66
2023/05/10 06:01:47;;;;;;;107.85;43.00;;;;;;;;;;5023811;28;91100;-66
2023/05/10 06:04:13;;;;;;;111.18;43.83;;;;;;;;;;5011864;28;90313;-65
2023/05/10 06:06:39;;;;;;;109.45;43.10;;;;;;;;;;5005151;28;89012;-65
2023/05/10 06:09:06;;;;;;;92.07;41.05;;;;;;;;;;4999356;28;91227;-65
2023/05/10 06:11:32;;;;;;;94.93;39.92;;;;;;;;;;5011198;28;89139;-65
2023/05/10 06:13:59;;;;;;;102.07;41.85;;;;;;;;;;4999442;28;90205;-65
2023/05/10 06:16:25;;;;;;;91.10;38.50;;;;;;;;;;5000031;28;90725;-65
2023/05/10 06:18:51;;;;;;;88.22;38.90;;;;;;;;;;5015697;28;89019;-65
2023/05/10 06:21:18;;;;;;;86.75;37.13;;;;;;;;;;5006488;28;91073;-65
2023/05/10 06:23:44;;;;;;;80.70;36.17;;;;;;;;;;5022383;28;90593;-65
2023/05/10 06:26:10;;;;;;;74.10;34.97;;;;;;;;;;5015193;28;90944;-65
2023/05/10 06:28:39;;;;;;;77.60;35.35;;;;;;;;;;5021909;27;89310;-65
2023/05/10 06:31:06;;;;;;;86.88;36.70;;;;;;;;;;5010231;28;89092;-65
2023/05/10 06:33:33;;;;;;;83.88;37.30;;;;;;;;;;5013842;28;90159;-65
2023/05/10 06:35:59;;;;;;;97.75;38.47;;;;;;;;;;5014126;28;90538;-65
2023/05/10 06:38:26;;;;;;;81.72;36.40;;;;;;;;;;5023009;27;89068;-66
2023/05/10 06:40:52;;;;;;;82.80;35.25;;;;;;;;;;5016343;28;90201;-65
2023/05/10 06:43:18;;;;;;;89.78;37.03;;;;;;;;;;5016217;28;90046;-65
2023/05/10 06:45:45;;;;;;;93.53;36.25;;;;;;;;;;5017496;28;89005;-66
2023/05/10 06:48:11;;;;;;;81.80;32.78;;;;;;;;;;5013365;28;89234;-66
2023/05/10 06:50:37;;;;;;;80.28;34.13;;;;;;;;;;5001672;28;89698;-66
2023/05/10 06:53:04;;;;;;;87.82;34.90;;;;;;;;;;5006613;28;90121;-66
2023/05/10 06:55:30;;;;;;;73.70;30.45;;;;;;;;;;4996074;28;89703;-65
2023/05/10 06:57:56;;;;;;;59.45;27.48;;;;;;;;;;4997165;28;89077;-65
2023/05/10 07:00:23;;;;;;;54.35;26.42;;;;;;;;;;4995634;28;90067;-65
2023/05/10 07:02:49;;;;;;;48.35;24.00;;;;;;;;;;5001205;28;89938;-65
2023/05/10 07:05:15;;;;;;;45.72;22.77;;;;;;;;;;5009592;28;89094;-66
2023/05/10 07:07:42;;;;;;;48.40;21.77;;;;;;;;;;4996031;28;89841;-66
2023/05/10 07:10:09;;;;;;;46.10;20.77;;;;;;;;;;4997094;28;89116;-65
2023/05/10 07:12:35;;;;;;;33.00;16.77;;;;;;;;;;5020553;28;90227;-66
2023/05/10 07:15:01;;;;;;;29.15;15.18;;;;;;;;;;5018839;27;89159;-66
2023/05/10 07:17:28;;;;;;;29.52;14.48;;;;;;;;;;5006629;28;90739;-65
2023/05/10 07:19:54;;;;;;;22.95;13.52;;;;;;;;;;4995880;28;90003;-66
2023/05/10 07:22:20;;;;;;;29.80;14.55;;;;;;;;;;5004918;28;89373;-65
2023/05/10 07:24:47;;;;;;;23.65;12.75;;;;;;;;;;5012039;28;89125;-66
2023/05/10 07:27:13;;;;;;;33.92;13.70;;;;;;;;;;5004841;28;89933;-65
2023/05/10 07:29:39;;;;;;;20.52;12.00;;;;;;;;;;5009237;28;90008;-66
2023/05/10 07:32:06;;;;;;;22.52;11.88;;;;;;;;;;5009982;28;89549;-66
2023/05/10 07:34:32;;;;;;;19.38;11.30;;;;;;;;;;5018275;28;89572;-66
2023/05/10 07:36:59;;;;;;;21.88;11.75;;;;;;;;;;5019666;28;90409;-66
2023/05/10 07:39:26;;;;;;;16.98;10.55;;;;;;;;;;5021343;28;90118;-66
2023/05/10 07:41:53;;;;;;;20.75;11.57;;;;;;;;;;5018590;28;89618;-69
2023/05/10 07:44:20;;;;;;;20.33;11.00;;;;;;;;;;5016309;28;89142;-66
2023/05/10 07:46:47;;;;;;;22.95;11.93;;;;;;;;;;5011809;28;90613;-66
2023/05/10 07:49:13;;;;;;;19.88;12.10;;;;;;;;;;5002128;28;90691;-66
2023/05/10 07:51:40;;;;;;;21.13;11.98;;;;;;;;;;5000405;28;90229;-65
2023/05/10 07:54:06;;;;;;;20.33;11.55;;;;;;;;;;5017390;28;89522;-68
2023/05/10 07:56:32;;;;;;;18.77;11.90;;;;;;;;;;5016066;28;93381;-66
2023/05/10 07:58:59;;;;;;;19.48;11.57;;;;;;;;;;5016920;28;91624;-67
2023/05/10 08:01:27;;;;;;;21.95;12.13;;;;;;;;;;5014833;28;94860;-66
2023/05/10 08:03:53;;;;;;;19.35;10.88;;;;;;;;;;4996220;27;93423;-66
2023/05/10 08:06:20;;;;;;;20.02;11.75;;;;;;;;;;4994553;28;94878;-66
2023/05/10 08:08:49;;;;;;;22.00;12.07;;;;;;;;;;4995866;28;96667;-66
2023/05/10 08:11:18;;;;;;;25.30;11.90;;;;;;;;;;5009273;28;93658;-66
2023/05/10 08:13:45;;;;;;;21.83;12.30;;;;;;;;;;4996850;28;93721;-66
2023/05/10 08:16:11;;;;;;;24.73;12.43;;;;;;;;;;4997625;28;93390;-66
2023/05/10 08:18:38;;;;;;;22.05;13.13;;;;;;;;;;5015919;28;92635;-67
2023/05/10 08:21:04;;;;;;;19.70;11.27;;;;;;;;;;4996930;28;94419;-67
2023/05/10 08:23:31;;;;;;;21.58;12.13;;;;;;;;;;5009857;28;93675;-66
2023/05/10 08:25:57;;;;;;;20.08;11.70;;;;;;;;;;5015969;28;92551;-66
2023/05/10 08:28:23;;;;;;;20.83;12.23;;;;;;;;;;5004100;28;94246;-66
2023/05/10 08:30:50;;;;;;;22.35;11.63;;;;;;;;;;5015695;27;95875;-66
2023/05/10 08:33:20;;;;;;;24.15;12.13;;;;;;;;;;5018977;28;92419;-66
2023/05/10 08:35:46;;;;;;;26.40;11.30;;;;;;;;;;5013996;28;93357;-66
2023/05/10 08:38:12;;;;;;;17.70;11.27;;;;;;;;;;5015469;28;92630;-66
2023/05/10 08:40:42;;;;;;;21.00;11.50;;;;;;;;;;5012476;28;92698;-66
2023/05/10 08:43:10;;;;;;;19.37;11.00;;;;;;;;;;5007036;28;94405;-67
2023/05/10 08:45:37;;;;;;;23.27;10.77;;;;;;;;;;5005228;28;92407;-66
2023/05/10 08:48:05;;;;;;;18.42;11.35;;;;;;;;;;5000770;28;93285;-67
2023/05/10 08:50:31;;;;;;;24.23;13.15;;;;;;;;;;5010531;28;93523;-66
2023/05/10 08:52:59;;;;;;;19.52;11.95;;;;;;;;;;5015455;28;92519;-67
2023/05/10 08:55:26;;;;;;;20.27;12.70;;;;;;;;;;5016606;28;95476;-66
2023/05/10 08:57:53;;;;;;;25.77;13.65;;;;;;;;;;5012053;28;92488;-66
2023/05/10 09:00:19;;;;;;;22.10;12.02;;;;;;;;;;5012691;28;93522;-66
2023/05/10 09:02:47;;;;;;;26.15;13.45;;;;;;;;;;5013842;28;94355;-66
2023/05/10 09:05:15;;;;;;;36.42;13.13;;;;;;;;;;5015160;28;92966;-66
2023/05/10 09:07:42;;;;;;;20.75;12.52;;;;;;;;;;5014610;28;94358;-67
2023/05/10 09:10:09;;;;;;;22.88;12.80;;;;;;;;;;5013921;28;94195;-67
2023/05/10 09:12:35;;;;;;;17.25;11.93;;;;;;;;;;5014053;28;92926;-66
2023/05/10 09:15:03;;;;;;;22.63;12.35;;;;;;;;;;5007433;28;93850;-66
2023/05/10 09:17:29;;;;;;;15.88;11.23;;;;;;;;;;5008471;28;93459;-66
2023/05/10 09:19:59;;;;;;;19.67;11.23;;;;;;;;;;5009652;28;95037;-66
2023/05/10 09:22:26;;;;;;;16.58;9.93;;;;;;;;;;5004065;28;93433;-65
2023/05/10 09:25:05;;;;;;;18.23;11.10;;;;;;;;;;5001689;28;92599;-66
2023/05/10 09:27:31;;;;;;;14.55;9.18;;;;;;;;;;5006302;28;93149;-67
2023/05/10 09:29:57;;;;;;;11.32;8.13;;;;;;;;;;5013787;28;94529;-68
2023/05/10 09:32:40;;;;;;;12.07;7.03;;;;;;;;;;5009788;28;92569;-67
2023/05/10 09:35:07;;;;;;;11.73;6.78;;;;;;;;;;5014242;28;94231;-66
2023/05/10 09:37:34;;;;;;;9.07;5.65;;;;;;;;;;5008590;28;94129;-66
2023/05/10 09:40:01;;;;;;;9.80;6.20;;;;;;;;;;5015812;28;92909;-66
2023/05/10 09:42:27;;;;;;;10.55;5.63;;;;;;;;;;5016630;28;93379;-65
2023/05/10 09:44:54;;;;;;;8.65;5.53;;;;;;;;;;5006018;28;95189;-65
2023/05/10 09:47:20;;;;;;;8.68;5.28;;;;;;;;;;5000740;28;96559;-66
2023/05/10 09:49:50;;;;;;;10.20;5.88;;;;;;;;;;5017641;28;93542;-65
2023/05/10 09:52:17;;;;;;;;;;;;;;;;;;5015709;28;92536;-64
2023/05/10 09:54:53;;;;;;;8.05;5.57;;;;;;;;;;5024322;28;123365;-64
2023/05/10 09:57:21;;;;;;;12.82;7.03;;;;;;;;;;5000295;28;93325;-65
2023/05/10 09:59:47;;;;;;;10.57;6.78;;;;;;;;;;5013637;28;93711;-66
2023/05/10 10:02:13;;;;;;;11.38;7.18;;;;;;;;;;5013293;28;92411;-67
2023/05/10 10:04:40;;;;;;;10.65;6.63;;;;;;;;;;5013731;28;92558;-65
2023/05/10 10:07:07;;;;;;;12.80;6.38;;;;;;;;;;5010947;28;92989;-65
2023/05/10 10:09:34;;;;;;;7.90;5.90;;;;;;;;;;5013399;28;96268;-65
2023/05/10 10:12:01;;;;;;;6.80;4.95;;;;;;;;;;5000637;28;92525;-65
2023/05/10 10:14:30;;;;;;;12.00;5.25;;;;;;;;;;5005022;28;93085;-65
2023/05/10 10:16:57;;;;;;;10.13;4.95;;;;;;;;;;5009027;28;93228;-65
2023/05/10 10:19:33;;;;;;;12.38;6.07;;;;;;;;;;5006596;28;92522;-65
2023/05/10 10:22:00;;;;;;;12.38;6.38;;;;;;;;;;5006944;28;95919;-65
2023/05/10 10:24:26;;;;;;;11.63;5.45;;;;;;;;;;5007515;28;92483;-65
2023/05/10 10:26:54;;;;;;;9.95;6.07;;;;;;;;;;5008264;28;94191;-65
2023/05/10 10:29:44;;;;;;;11.38;6.88;;;;;;;;;;4996912;28;94471;-65
2023/05/10 10:32:20;;;;;;;11.20;6.63;;;;;;;;;;5005411;28;92857;-65
2023/05/10 10:34:46;;;;;;;8.15;6.47;;;;;;;;;;4999899;28;94966;-65
2023/05/10 10:37:13;;;;;;;15.43;7.45;;;;;;;;;;5003976;28;93387;-65
2023/05/10 10:39:39;;;;;;;10.95;7.03;;;;;;;;;;5001356;28;92652;-65
2023/05/10 10:42:06;;;;;;;11.68;6.32;;;;;;;;;;5008527;28;93171;-65
2023/05/10 10:44:35;;;;;;;11.88;6.78;;;;;;;;;;5010809;28;93371;-65
2023/05/10 10:50:07;;;;;;;11.68;7.40;;;;;;;;;;4991066;28;93413;-65
2023/05/10 10:52:35;;;;;;;11.27;7.57;;;;;;;;;;4998256;28;91874;-65
2023/05/10 10:55:18;;;;;;;14.38;7.05;;;;;;;;;;4994869;28;92829;-65
2023/05/10 10:57:52;;;;;;;8.93;6.65;;;;;;;;;;5013438;28;93882;-65
2023/05/10 11:00:21;;;;;;;11.27;6.95;;;;;;;;;;5005644;28;94963;-65
2023/05/10 11:02:53;;;;;;;10.70;6.17;;;;;;;;;;5006726;28;95571;-65
2023/05/10 11:05:32;;;;;;;14.27;6.55;;;;;;;;;;5009771;28;94549;-65
2023/05/10 11:07:59;;;;;;;9.40;6.70;;;;;;;;;;5009377;28;93015;-65
2023/05/10 11:10:26;;;;;;;13.10;6.35;;;;;;;;;;5001209;28;94580;-65
2023/05/10 11:12:53;;;;;;;11.52;6.20;;;;;;;;;;5003539;27;93335;-65
2023/05/10 11:15:27;;;;;;;10.00;6.18;;;;;;;;;;5019384;28;93275;-65
2023/05/10 11:17:55;;;;;;;12.07;6.15;;;;;;;;;;5001003;27;93134;-65
2023/05/10 11:20:24;;;;;;;12.43;5.90;;;;;;;;;;5002310;28;92438;-65
2023/05/10 11:22:51;;;;;;;7.53;5.65;;;;;;;;;;5010179;28;93245;-65
2023/05/10 11:25:18;;;;;;;10.13;5.70;;;;;;;;;;5011870;28;95795;-65
2023/05/10 11:27:47;;;;;;;8.40;5.53;;;;;;;;;;5015847;28;94024;-65
2023/05/10 11:30:14;;;;;;;7.50;5.75;;;;;;;;;;5013859;28;94430;-66
2023/05/10 11:32:41;;;;;;;12.05;5.40;;;;;;;;;;5012287;28;92464;-65
2023/05/10 11:35:08;;;;;;;8.40;5.90;;;;;;;;;;5013685;28;94258;-65
2023/05/10 11:37:34;;;;;;;8.60;5.35;;;;;;;;;;5014779;28;93598;-66
2023/05/10 11:40:02;;;;;;;6.82;5.20;;;;;;;;;;5007168;28;92468;-66
2023/05/10 11:42:28;;;;;;;7.63;5.60;;;;;;;;;;4994248;28;93383;-65
2023/05/10 11:44:55;;;;;;;10.65;5.35;;;;;;;;;;4993423;28;93646;-65
2023/05/10 11:47:21;;;;;;;8.80;5.63;;;;;;;;;;5013626;28;92541;-66
2023/05/10 11:49:48;;;;;;;7.82;4.82;;;;;;;;;;5034777;27;94944;-65
2023/05/10 11:52:14;;;;;;;9.38;4.80;;;;;;;;;;5028229;27;92463;-66
2023/05/10 11:54:53;;;;;;;7.72;4.72;;;;;;;;;;5008926;28;93483;-66
2023/05/10 11:57:20;;;;;;;8.98;4.25;;;;;;;;;;5004782;28;92842;-66
2023/05/10 11:59:47;;;;;;;6.30;4.47;;;;;;;;;;5007018;28;92462;-66
2023/05/10 12:02:13;;;;;;;5.00;3.83;;;;;;;;;;5032821;27;93444;-66
2023/05/10 12:04:41;;;;;;;7.13;4.40;;;;;;;;;;5010797;27;93739;-66
2023/05/10 12:07:07;;;;;;;6.97;4.13;;;;;;;;;;5003225;28;92792;-66
2023/05/10 12:09:33;;;;;;;5.50;3.63;;;;;;;;;;5015380;27;92343;-66
2023/05/10 12:12:09;;;;;;;6.80;3.42;;;;;;;;;;5010325;28;93906;-66
2023/05/10 12:14:36;;;;;;;9.48;3.97;;;;;;;;;;4991297;28;94811;-66
2023/05/10 12:17:02;;;;;;;9.75;3.30;;;;;;;;;;4996719;28;94477;-65
2023/05/10 12:19:36;;;;;;;5.03;3.05;;;;;;;;;;5013443;28;92477;-66
2023/05/10 12:22:04;;;;;;;10.38;3.17;;;;;;;;;;5007704;28;93176;-66
2023/05/10 12:24:33;;;;;;;4.75;2.97;;;;;;;;;;5016667;28;93402;-66
2023/05/10 12:26:59;;;;;;;5.25;3.45;;;;;;;;;;5016399;28;92633;-66
2023/05/10 12:29:29;;;;;;;5.85;3.08;;;;;;;;;;5016882;28;94397;-66
2023/05/10 12:31:57;;;;;;;6.15;3.70;;;;;;;;;;5009114;28;92712;-65
2023/05/10 12:34:23;;;;;;;6.65;3.33;;;;;;;;;;5009692;28;92441;-65
2023/05/10 12:36:52;;;;;;;3.97;3.25;;;;;;;;;;5016363;28;93418;-65
2023/05/10 12:39:19;;;;;;;5.28;3.35;;;;;;;;;;5013752;28;94795;-66
2023/05/10 12:41:45;;;;;;;4.30;2.85;;;;;;;;;;5000173;28;96570;-65
2023/05/10 12:44:11;;;;;;;5.65;3.33;;;;;;;;;;5007328;28;93391;-66
2023/05/10 12:46:38;;;;;;;5.47;2.90;;;;;;;;;;5014273;28;92429;-65
2023/05/10 12:49:04;;;;;;;5.40;3.10;;;;;;;;;;5016612;28;94144;-65
2023/05/10 12:51:34;;;;;;;;;;;;;;;;;;5010034;28;93704;-65
2023/05/10 12:54:02;;;;;;;7.60;3.00;;;;;;;;;;5011564;28;119109;-66
2023/05/10 12:56:28;;;;;;;5.28;3.35;;;;;;;;;;5018820;28;93095;-66
2023/05/10 12:58:54;;;;;;;3.58;2.65;;;;;;;;;;5007682;28;92520;-68
2023/05/10 13:01:21;;;;;;;3.85;3.00;;;;;;;;;;5011224;28;94085;-66
2023/05/10 13:03:47;;;;;;;7.47;4.65;;;;;;;;;;5009601;28;95891;-66
2023/05/10 13:06:13;;;;;;;8.85;4.72;;;;;;;;;;5006608;28;94238;-66
2023/05/10 13:08:40;;;;;;;5.68;4.72;;;;;;;;;;5019102;28;93292;-65
2023/05/10 13:11:06;;;;;;;8.85;5.30;;;;;;;;;;5024228;27;94791;-65
2023/05/10 13:13:33;;;;;;;6.03;5.20;;;;;;;;;;5015504;28;92436;-65
2023/05/10 13:15:59;;;;;;;5.80;4.80;;;;;;;;;;5012429;28;93433;-66
2023/05/10 13:18:26;;;;;;;7.13;5.50;;;;;;;;;;5015210;28;92608;-66
2023/05/10 13:20:53;;;;;;;7.43;5.85;;;;;;;;;;5016124;28;93188;-66
2023/05/10 13:23:19;;;;;;;7.40;6.10;;;;;;;;;;5011970;28;93917;-66
2023/05/10 13:25:46;;;;;;;7.85;5.43;;;;;;;;;;5005610;28;93683;-66
2023/05/10 13:28:12;;;;;;;10.05;5.30;;;;;;;;;;4994021;28;95067;-66
2023/05/10 13:30:38;;;;;;;12.40;5.70;;;;;;;;;;4995476;28;93444;-66
2023/05/10 13:33:05;;;;;;;8.98;4.85;;;;;;;;;;5022830;27;92607;-66
2023/05/10 13:35:31;;;;;;;8.95;5.45;;;;;;;;;;5014592;28;93254;-66
2023/05/10 13:37:57;;;;;;;8.43;5.55;;;;;;;;;;5017054;28;92447;-66
2023/05/10 13:40:24;;;;;;;9.82;5.47;;;;;;;;;;5008545;28;93039;-66
2023/05/10 13:42:50;;;;;;;13.80;4.85;;;;;;;;;;5018138;28;93726;-65
2023/05/10 13:45:16;;;;;;;13.57;5.00;;;;;;;;;;5015581;28;93258;-66
2023/05/10 13:47:43;;;;;;;8.98;5.50;;;;;;;;;;5015718;28;92482;-66
2023/05/10 13:50:09;;;;;;;11.63;5.47;;;;;;;;;;5013971;28;93604;-64
2023/05/10 13:52:36;;;;;;;10.75;6.20;;;;;;;;;;5009443;28;94899;-65
2023/05/10 13:55:02;;;;;;;14.77;5.70;;;;;;;;;;5014407;28;95551;-66
2023/05/10 13:57:30;;;;;;;7.57;5.32;;;;;;;;;;5008088;28;94640;-66
2023/05/10 13:59:57;;;;;;;9.85;5.55;;;;;;;;;;4998263;28;92458;-65
2023/05/10 14:02:24;;;;;;;8.10;5.68;;;;;;;;;;4998982;28;93922;-65
2023/05/10 14:04:50;;;;;;;9.70;5.05;;;;;;;;;;5011372;28;92498;-66
2023/05/10 14:07:17;;;;;;;7.57;5.47;;;;;;;;;;5014772;28;92945;-66
2023/05/10 14:09:44;;;;;;;7.53;5.38;;;;;;;;;;5015492;28;92706;-66
2023/05/10 14:12:10;;;;;;;10.20;5.97;;;;;;;;;;5012107;28;94145;-66
2023/05/10 14:14:36;;;;;;;9.38;6.38;;;;;;;;;;5014432;27;93149;-66
2023/05/10 14:17:03;;;;;;;12.82;7.10;;;;;;;;;;4999403;28;96794;-67
2023/05/10 14:19:32;;;;;;;16.42;7.88;;;;;;;;;;5005654;28;92381;-65
2023/05/10 14:21:58;;;;;;;15.52;8.05;;;;;;;;;;5007203;28;93204;-66
2023/05/10 14:24:24;;;;;;;10.38;6.80;;;;;;;;;;5014120;28;92429;-65
2023/05/10 14:26:53;;;;;;;15.35;8.43;;;;;;;;;;5012723;28;94252;-65
2023/05/10 14:29:20;;;;;;;13.63;7.88;;;;;;;;;;5007865;28;94122;-65